createdAt,value
2022-09-26T00:01:45.837Z,57732.34
2022-09-26T00:04:21.213Z,57746.28
2022-09-26T00:06:52.662Z,57935.38
2022-09-26T00:09:28.483Z,58114.53
2022-09-26T00:11:59.036Z,58351.47
2022-09-26T00:14:30.176Z,58596.34
2022-09-26T00:16:58.938Z,58789.47
2022-09-26T00:19:27.800Z,59062.28
2022-09-26T00:21:56.287Z,59161.84
2022-09-26T00:24:25.452Z,59323.16
2022-09-26T00:26:54.088Z,59440.66
2022-09-26T00:29:24.434Z,59388.88
2022-09-26T00:31:53.973Z,59639.81
2022-09-26T00:34:22.689Z,59598.00
2022-09-26T00:36:51.112Z,59815.09
2022-09-26T00:39:19.958Z,59755.34
2022-09-26T00:41:49.967Z,60060.09
2022-09-26T00:44:45.087Z,59974.44
2022-09-26T00:47:27.884Z,60010.28
2022-09-26T00:50:00.961Z,60085.97
2022-09-26T00:52:35.788Z,60030.22
2022-09-26T00:55:07.551Z,59619.91
2022-09-26T00:57:41.895Z,59868.88
2022-09-26T01:00:15.099Z,59839.00
2022-09-26T01:02:45.887Z,59723.47
2022-09-26T01:05:17.431Z,59528.28
2022-09-26T01:07:46.328Z,59253.47
2022-09-26T01:10:16.568Z,59133.97
2022-09-26T01:12:45.348Z,59062.28
2022-09-26T01:15:15.803Z,59424.72
2022-09-26T01:17:46.938Z,59299.25
2022-09-26T01:20:26.781Z,59372.94
2022-09-26T01:23:20.493Z,59353.03
2022-09-26T01:26:16.000Z,58962.72
2022-09-26T01:29:04.461Z,59241.50
2022-09-26T01:31:43.007Z,59153.88
2022-09-26T01:34:19.760Z,58994.56
2022-09-26T01:37:05.593Z,59040.38
2022-09-26T01:39:48.147Z,58877.09
2022-09-26T01:42:28.233Z,58906.97
2022-09-26T01:45:02.999Z,58807.41
2022-09-26T01:47:42.702Z,58759.63
2022-09-26T01:50:19.279Z,58918.91
2022-09-26T01:52:54.866Z,58914.94
2022-09-26T01:55:29.172Z,58986.63
2022-09-26T01:58:04.921Z,58773.56
2022-09-26T02:00:35.118Z,58729.75
2022-09-26T02:03:13.027Z,58548.56
2022-09-26T02:05:45.477Z,58431.09
2022-09-26T02:08:17.643Z,58202.13
2022-09-26T02:10:50.703Z,58168.28
2022-09-26T02:13:23.538Z,58166.31
2022-09-26T02:15:58.878Z,57959.28
2022-09-26T02:18:32.905Z,57895.56
2022-09-26T02:21:03.890Z,57758.22
2022-09-26T02:23:32.745Z,57764.19
2022-09-26T02:26:01.265Z,57656.69
2022-09-26T02:28:29.748Z,57602.97
2022-09-26T02:31:01.449Z,57465.63
2022-09-26T02:33:32.771Z,57419.84
2022-09-26T02:36:03.708Z,57308.38
2022-09-26T02:38:34.865Z,57388.00
2022-09-26T02:41:27.615Z,57302.41
2022-09-26T02:44:13.907Z,56999.91
2022-09-26T02:47:21.965Z,56832.72
2022-09-26T02:50:13.163Z,56593.94
2022-09-26T02:52:51.535Z,56474.53
2022-09-26T02:55:39.042Z,56387.00
2022-09-26T02:58:16.506Z,56315.38
2022-09-26T03:00:55.974Z,56164.16
2022-09-26T03:03:33.153Z,56186.03
2022-09-26T03:06:06.641Z,56084.56
2022-09-26T03:08:40.202Z,55973.16
2022-09-26T03:11:12.303Z,55949.28
2022-09-26T03:13:42.041Z,55913.47
2022-09-26T03:16:12.773Z,55961.22
2022-09-26T03:18:48.576Z,55949.28
2022-09-26T03:21:18.783Z,55883.63
2022-09-26T03:23:47.704Z,55907.50
2022-09-26T03:26:20.230Z,55963.22
2022-09-26T03:28:56.395Z,55905.50
2022-09-26T03:31:28.425Z,55907.50
2022-09-26T03:34:02.671Z,55883.63
2022-09-26T03:36:33.361Z,55806.03
2022-09-26T03:39:04.359Z,55716.50
2022-09-26T03:41:44.497Z,55670.75
2022-09-26T03:44:22.242Z,55634.94
2022-09-26T03:47:05.837Z,55603.13
2022-09-26T03:49:40.542Z,55541.47
2022-09-26T03:52:14.086Z,55543.44
2022-09-26T03:54:45.428Z,55599.16
2022-09-26T03:57:14.395Z,55575.28
2022-09-26T03:59:57.582Z,55501.66
2022-09-26T04:02:33.515Z,55565.31
2022-09-26T04:05:18.395Z,55457.91
2022-09-26T04:07:48.784Z,55382.31
2022-09-26T04:10:19.204Z,55334.59
2022-09-26T04:12:47.691Z,55340.56
2022-09-26T04:15:17.278Z,55352.47
2022-09-26T04:17:45.791Z,55251.03
2022-09-26T04:20:15.186Z,55221.19
2022-09-26T04:22:45.869Z,55209.25
2022-09-26T04:25:16.428Z,55197.34
2022-09-26T04:27:45.318Z,55229.16
2022-09-26T04:30:14.814Z,55205.28
2022-09-26T04:32:51.169Z,55161.53
2022-09-26T04:35:37.550Z,55145.63
2022-09-26T04:38:08.453Z,55036.22
2022-09-26T04:40:42.695Z,55062.09
2022-09-26T04:43:12.782Z,54964.63
2022-09-26T04:45:43.563Z,54934.78
2022-09-26T04:48:13.842Z,54883.06
2022-09-26T04:50:56.976Z,54799.53
2022-09-26T04:53:27.099Z,54743.84
2022-09-26T04:56:15.968Z,54739.88
2022-09-26T04:58:45.988Z,54568.84
2022-09-26T05:01:16.717Z,54558.91
2022-09-26T05:04:05.727Z,54564.88
2022-09-26T05:06:35.385Z,54564.88
2022-09-26T05:09:06.154Z,54517.16
2022-09-26T05:11:59.984Z,54467.44
2022-09-26T05:14:28.662Z,54483.34
2022-09-26T05:16:57.363Z,54369.97
2022-09-26T05:19:27.379Z,54344.13
2022-09-26T05:22:14.647Z,54314.31
2022-09-26T05:25:00.905Z,54338.16
2022-09-26T05:27:32.034Z,54302.38
2022-09-26T05:30:01.302Z,54282.50
2022-09-26T05:32:30.274Z,54280.50
2022-09-26T05:34:59.330Z,54270.56
2022-09-26T05:37:31.186Z,54270.56
2022-09-26T05:40:17.503Z,54256.63
2022-09-26T05:42:52.832Z,54198.97
2022-09-26T05:45:21.587Z,54210.91
2022-09-26T05:47:50.368Z,54187.03
2022-09-26T05:50:22.396Z,54220.84
2022-09-26T05:52:52.771Z,54163.19
2022-09-26T05:55:25.716Z,54181.06
2022-09-26T05:58:14.195Z,54105.50
2022-09-26T06:01:07.145Z,54125.41
2022-09-26T06:03:36.880Z,54119.44
2022-09-26T06:06:12.353Z,54087.63
2022-09-26T06:08:42.614Z,54081.66
2022-09-26T06:11:40.231Z,54047.84
2022-09-26T06:14:10.351Z,54045.88
2022-09-26T06:16:39.778Z,54039.91
2022-09-26T06:19:08.957Z,54043.88
2022-09-26T06:21:40.279Z,53992.19
2022-09-26T06:24:14.180Z,54000.13
2022-09-26T06:26:43.850Z,54004.09
2022-09-26T06:29:16.117Z,54012.06
2022-09-26T06:31:45.174Z,53978.25
2022-09-26T06:34:14.189Z,54016.03
2022-09-26T06:36:55.227Z,54000.13
2022-09-26T06:39:24.019Z,54016.03
2022-09-26T06:41:53.303Z,54055.81
2022-09-26T06:44:37.812Z,54083.66
2022-09-26T06:47:32.955Z,54053.81
2022-09-26T06:50:27.971Z,54085.63
2022-09-26T06:53:10.445Z,54141.31
2022-09-26T06:55:39.682Z,54165.16
2022-09-26T06:58:08.315Z,54149.25
2022-09-26T07:00:52.288Z,54161.19
2022-09-26T07:03:46.073Z,54198.97
2022-09-26T07:06:50.275Z,54196.97
2022-09-26T07:09:19.005Z,54210.91
2022-09-26T07:12:17.460Z,54208.91
2022-09-26T07:14:50.105Z,54226.81
2022-09-26T07:17:28.843Z,54214.88
2022-09-26T07:20:19.681Z,54200.97
2022-09-26T07:22:57.183Z,54173.13
2022-09-26T07:25:25.721Z,54167.16
2022-09-26T07:27:54.735Z,54163.19
2022-09-26T07:30:31.093Z,54131.38
2022-09-26T07:33:09.089Z,54109.50
2022-09-26T07:35:49.819Z,54093.59
2022-09-26T07:38:18.336Z,54119.44
2022-09-26T07:40:48.529Z,54087.63
2022-09-26T07:43:24.154Z,54093.59
2022-09-26T07:46:21.988Z,54117.44
2022-09-26T07:49:11.963Z,54095.56
2022-09-26T07:52:00.715Z,54057.78
2022-09-26T07:54:44.119Z,54025.97
2022-09-26T07:57:21.582Z,54045.88
2022-09-26T08:00:17.101Z,54004.09
2022-09-26T08:02:55.648Z,53990.19
2022-09-26T08:05:26.744Z,53988.19
2022-09-26T08:07:57.644Z,53984.22
2022-09-26T08:10:45.143Z,53986.22
2022-09-26T08:13:36.677Z,53972.28
2022-09-26T08:16:20.887Z,53996.16
2022-09-26T08:18:50.241Z,53950.44
2022-09-26T08:21:21.380Z,53982.25
2022-09-26T08:23:53.670Z,53928.56
2022-09-26T08:26:44.446Z,53876.84
2022-09-26T08:29:35.197Z,53936.50
2022-09-26T08:32:04.747Z,53924.56
2022-09-26T08:34:35.655Z,53952.41
2022-09-26T08:37:29.162Z,53952.41
2022-09-26T08:40:16.246Z,53952.41
2022-09-26T08:43:30.051Z,53968.31
2022-09-26T08:46:42.755Z,54004.09
2022-09-26T08:50:02.915Z,54027.97
2022-09-26T08:52:38.764Z,54051.81
2022-09-26T08:55:14.160Z,54071.72
2022-09-26T08:57:46.122Z,54129.38
2022-09-26T09:00:21.305Z,54173.13
2022-09-26T09:03:27.119Z,54220.84
2022-09-26T09:06:03.820Z,54226.81
2022-09-26T09:08:38.919Z,54270.56
2022-09-26T09:11:53.495Z,54246.69
2022-09-26T09:14:36.662Z,54304.38
2022-09-26T09:17:39.347Z,54318.28
2022-09-26T09:20:20.950Z,54338.16
2022-09-26T09:23:30.483Z,54296.41
2022-09-26T09:29:39.647Z,54248.69
2022-09-26T09:32:32.720Z,54230.78
2022-09-26T09:35:36.333Z,54198.97
2022-09-26T09:38:18.287Z,54131.38
2022-09-26T09:41:09.149Z,54127.38
2022-09-26T09:43:41.314Z,54105.50
2022-09-26T09:46:18.137Z,54035.91
2022-09-26T09:48:49.375Z,54016.03
2022-09-26T09:51:36.846Z,54016.03
2022-09-26T09:54:40.401Z,53954.41
2022-09-26T09:57:27.855Z,53884.81
2022-09-26T10:00:10.159Z,53896.75
2022-09-26T10:02:55.002Z,53916.63
2022-09-26T10:05:39.501Z,53858.97
2022-09-26T10:08:13.417Z,53856.97
2022-09-26T10:11:24.207Z,53890.78
2022-09-26T10:14:04.848Z,53807.25
2022-09-26T10:17:16.069Z,53773.47
2022-09-26T10:20:05.349Z,53793.34
2022-09-26T10:22:45.725Z,53749.59
2022-09-26T10:25:27.058Z,53745.63
2022-09-26T10:27:57.937Z,53745.63
2022-09-26T10:30:34.429Z,53763.53
2022-09-26T10:33:26.369Z,53727.75
2022-09-26T10:36:12.879Z,53715.81
2022-09-26T10:39:11.951Z,53721.78
2022-09-26T10:41:42.320Z,53717.78
2022-09-26T10:44:29.477Z,53701.88
2022-09-26T10:47:14.500Z,53678.03
2022-09-26T10:50:07.709Z,53693.94
2022-09-26T10:53:01.598Z,53654.19
2022-09-26T10:55:39.680Z,53664.13
2022-09-26T10:58:13.851Z,53670.09
2022-09-26T11:00:46.290Z,53646.22
2022-09-26T11:03:33.875Z,53693.94
2022-09-26T11:06:34.180Z,53703.88
2022-09-26T11:09:20.553Z,53687.97
2022-09-26T11:11:58.392Z,53662.13
2022-09-26T11:14:34.524Z,53672.06
2022-09-26T11:17:10.215Z,53699.91
2022-09-26T11:19:54.489Z,53745.63
2022-09-26T11:22:32.228Z,53741.66
2022-09-26T11:25:08.471Z,53737.69
2022-09-26T11:27:45.162Z,53743.66
2022-09-26T11:30:21.329Z,53767.50
2022-09-26T11:33:00.130Z,53793.34
2022-09-26T11:35:47.036Z,53769.50
2022-09-26T11:38:39.234Z,53795.34
2022-09-26T11:41:39.098Z,53845.03
2022-09-26T11:44:42.303Z,53845.03
2022-09-26T11:47:41.329Z,53839.06
2022-09-26T11:50:39.793Z,53831.13
2022-09-26T11:53:33.815Z,53819.19
2022-09-26T11:56:16.047Z,53874.88
2022-09-26T11:58:51.997Z,53837.09
2022-09-26T12:01:31.804Z,53856.97
2022-09-26T12:04:28.230Z,53884.81
2022-09-26T12:07:07.659Z,53862.94
2022-09-26T12:09:50.997Z,53864.94
2022-09-26T12:12:29.580Z,53849.03
2022-09-26T12:15:12.885Z,53872.88
2022-09-26T12:17:52.625Z,53858.97
2022-09-26T12:20:33.418Z,53922.59
2022-09-26T12:23:08.668Z,53912.66
2022-09-26T12:25:56.153Z,53916.63
2022-09-26T12:28:41.574Z,53936.50
2022-09-26T12:31:20.897Z,53952.41
2022-09-26T12:34:06.214Z,53992.19
2022-09-26T12:36:48.114Z,54035.91
2022-09-26T12:39:43.934Z,54057.78
2022-09-26T12:42:27.864Z,54147.28
2022-09-26T12:45:11.972Z,54189.03
2022-09-26T12:47:57.233Z,54296.41
2022-09-26T12:50:37.831Z,54362.03
2022-09-26T12:53:48.590Z,54429.66
2022-09-26T12:56:23.704Z,54463.44
2022-09-26T12:59:14.030Z,54572.81
2022-09-26T13:02:05.321Z,54616.56
2022-09-26T13:04:50.917Z,54672.25
2022-09-26T13:07:34.358Z,54739.88
2022-09-26T13:10:16.547Z,54823.41
2022-09-26T13:13:22.499Z,54807.50
2022-09-26T13:16:04.289Z,54835.34
2022-09-26T13:18:47.282Z,54839.31
2022-09-26T13:21:21.442Z,54899.00
2022-09-26T13:23:57.968Z,54910.91
2022-09-26T13:26:30.956Z,54986.50
2022-09-26T13:29:17.597Z,54990.47
2022-09-26T13:31:55.484Z,54942.75
2022-09-26T13:34:30.693Z,54986.50
2022-09-26T13:37:00.758Z,55026.28
2022-09-26T13:39:34.918Z,54934.78
2022-09-26T13:42:10.498Z,54900.97
2022-09-26T13:44:57.703Z,54996.44
2022-09-26T13:47:40.074Z,55093.91
2022-09-26T13:50:23.429Z,55101.84
2022-09-26T13:53:06.943Z,55225.19
2022-09-26T13:55:36.598Z,55187.38
2022-09-26T13:58:10.550Z,55225.19
2022-09-26T14:00:49.480Z,55461.88
2022-09-26T14:03:51.937Z,55543.44
2022-09-26T14:06:32.305Z,55547.44
2022-09-26T14:09:26.690Z,55658.81
2022-09-26T14:12:29.834Z,55718.50
2022-09-26T14:15:17.997Z,55869.69
2022-09-26T14:18:09.450Z,56092.53
2022-09-26T14:20:59.335Z,56255.69
2022-09-26T14:23:46.850Z,56283.53
2022-09-26T14:26:21.168Z,56426.78
2022-09-26T14:28:55.147Z,56554.13
2022-09-26T14:31:58.513Z,56653.63
2022-09-26T14:34:30.743Z,56749.16
2022-09-26T14:37:04.987Z,56970.03
2022-09-26T14:39:40.108Z,57179.00
2022-09-26T14:42:19.114Z,57405.91
2022-09-26T14:44:56.983Z,57581.06
2022-09-26T14:47:28.529Z,57608.94
2022-09-26T14:50:03.214Z,57941.34
2022-09-26T14:52:35.848Z,57927.41
2022-09-26T14:55:08.076Z,58162.31
2022-09-26T14:57:39.065Z,58648.13
2022-09-26T15:00:36.597Z,58588.38
2022-09-26T15:03:08.926Z,58439.06
2022-09-26T15:05:37.662Z,57991.13
2022-09-26T15:08:23.880Z,57989.13
2022-09-26T15:10:54.375Z,57652.72
2022-09-26T15:13:29.948Z,57065.56
2022-09-26T15:16:09.911Z,56498.44
2022-09-26T15:18:41.627Z,56018.91
2022-09-26T15:21:26.535Z,56020.91
2022-09-26T15:23:58.576Z,56036.81
2022-09-26T15:26:30.158Z,55833.88
2022-09-26T15:29:00.711Z,55670.75
2022-09-26T15:31:31.301Z,55642.91
2022-09-26T15:34:06.014Z,55475.81
2022-09-26T15:36:37.486Z,55541.47
2022-09-26T15:39:37.748Z,55457.91
2022-09-26T15:42:48.338Z,55499.69
2022-09-26T15:45:40.285Z,55527.53
2022-09-26T15:48:27.886Z,55668.78
2022-09-26T15:51:01.775Z,55817.97
2022-09-26T15:53:36.754Z,55895.56
2022-09-26T15:56:10.563Z,55905.50
2022-09-26T15:58:45.708Z,56068.66
2022-09-26T16:01:17.616Z,56172.13
2022-09-26T16:03:57.338Z,56339.25
2022-09-26T16:06:35.004Z,56605.88
2022-09-26T16:09:09.941Z,56635.72
2022-09-26T16:11:50.207Z,56948.16
2022-09-26T16:14:33.614Z,56920.28
2022-09-26T16:17:12.852Z,56970.03
2022-09-26T16:19:46.484Z,57083.47
2022-09-26T16:22:40.231Z,57328.28
2022-09-26T16:25:24.589Z,57467.59
2022-09-26T16:28:21.047Z,57405.91
2022-09-26T16:31:10.572Z,57670.63
2022-09-26T16:33:40.526Z,57630.81
2022-09-26T16:36:19.044Z,57823.91
2022-09-26T16:38:53.306Z,58028.94
2022-09-26T16:41:56.261Z,57963.25
2022-09-26T16:44:28.984Z,58108.56
2022-09-26T16:47:03.378Z,58429.09
2022-09-26T16:49:45.918Z,58721.78
2022-09-26T16:52:34.783Z,58930.84
2022-09-26T16:55:07.212Z,59147.91
2022-09-26T16:57:38.946Z,59052.31
2022-09-26T17:00:36.014Z,59177.78
2022-09-26T17:03:05.999Z,59368.97
2022-09-26T17:05:35.558Z,59751.34
2022-09-26T17:08:04.682Z,59713.50
2022-09-26T17:10:37.725Z,59651.75
2022-09-26T17:13:06.974Z,59862.88
2022-09-26T17:15:37.912Z,60157.69
2022-09-26T17:18:10.440Z,60165.66
2022-09-26T17:20:41.146Z,60366.84
2022-09-26T17:23:34.886Z,60544.16
2022-09-26T17:25:59.250Z,60823.06
2022-09-26T17:28:32.582Z,61211.59
2022-09-26T17:31:06.574Z,61444.75
2022-09-26T17:33:38.295Z,61652.00
2022-09-26T17:36:11.044Z,61938.97
2022-09-26T17:38:43.517Z,62257.88
2022-09-26T17:41:12.672Z,62847.91
2022-09-26T17:43:45.977Z,63274.56
2022-09-26T17:46:16.988Z,63838.84
2022-09-26T17:48:45.960Z,64652.53
2022-09-26T17:51:15.121Z,65492.38
2022-09-26T17:53:50.818Z,66190.72
2022-09-26T17:56:20.946Z,66398.25
2022-09-26T17:58:52.123Z,66881.25
2022-09-26T18:01:26.512Z,67559.91
2022-09-26T18:03:59.847Z,68210.78
2022-09-26T18:06:33.273Z,68927.66
2022-09-26T18:09:17.115Z,69726.59
2022-09-26T18:11:55.620Z,70799.44
2022-09-26T18:14:24.423Z,71442.94
2022-09-26T18:16:54.300Z,71954.59
2022-09-26T18:19:23.045Z,72210.47
2022-09-26T18:21:55.139Z,72466.34
2022-09-26T18:24:27.609Z,73234.09
2022-09-26T18:27:03.889Z,73746.06
2022-09-26T18:29:36.678Z,74258.06
2022-09-26T18:32:13.283Z,74770.16
2022-09-26T18:34:41.786Z,75282.31
2022-09-26T18:37:10.446Z,75538.44
2022-09-26T18:39:38.919Z,75538.44
2022-09-26T18:42:09.958Z,75794.56
2022-09-26T18:44:38.964Z,76306.91
2022-09-26T18:47:15.682Z,76563.09
2022-09-26T18:49:46.556Z,76819.28
2022-09-26T18:52:17.638Z,77075.53
2022-09-26T18:55:07.137Z,77331.78
2022-09-26T18:57:52.912Z,77075.53
2022-09-26T19:00:21.632Z,77075.53
2022-09-26T19:02:52.179Z,77331.78
2022-09-26T19:05:21.384Z,77844.31
2022-09-26T19:07:50.071Z,78356.94
2022-09-26T19:10:22.049Z,78869.66
2022-09-26T19:12:50.593Z,78869.66
2022-09-26T19:15:19.270Z,79126.03
2022-09-26T19:17:50.120Z,79126.03
2022-09-26T19:20:20.125Z,79126.03
2022-09-26T19:22:49.351Z,79126.03
2022-09-26T19:25:18.304Z,79126.03
2022-09-26T19:27:50.260Z,78869.66
2022-09-26T19:30:21.303Z,79126.03
2022-09-26T19:32:52.444Z,79382.44
2022-09-26T19:35:27.189Z,79895.28
2022-09-26T19:37:56.377Z,80151.75
2022-09-26T19:40:26.510Z,80151.75
2022-09-26T19:42:57.504Z,80408.22
2022-09-26T19:45:32.156Z,80151.75
2022-09-26T19:48:01.242Z,80408.22
2022-09-26T19:50:33.325Z,80921.25
2022-09-26T19:53:04.590Z,81434.31
2022-09-26T19:55:33.642Z,81690.91
2022-09-26T19:58:08.077Z,82204.09
2022-09-26T20:00:41.458Z,82460.72
2022-09-26T20:03:17.886Z,82717.38
2022-09-26T20:05:49.456Z,82974.03
2022-09-26T20:08:20.638Z,83230.72
2022-09-26T20:10:49.573Z,82717.38
2022-09-26T20:13:18.244Z,82460.72
2022-09-26T20:15:49.053Z,82204.09
2022-09-26T20:18:22.021Z,82204.09
2022-09-26T20:20:57.819Z,82460.72
2022-09-26T20:23:28.583Z,81947.50
2022-09-26T20:26:00.313Z,81947.50
2022-09-26T20:28:29.012Z,81947.50
2022-09-26T20:30:58.907Z,81690.91
2022-09-26T20:33:28.281Z,81177.78
2022-09-26T20:36:03.150Z,80921.25
2022-09-26T20:38:38.259Z,80664.72
2022-09-26T20:41:13.184Z,80408.22
2022-09-26T20:43:48.215Z,79895.28
2022-09-26T20:46:17.122Z,79382.44
2022-09-26T20:48:48.388Z,78869.66
2022-09-26T20:51:21.985Z,78356.94
2022-09-26T20:53:50.563Z,77844.31
2022-09-26T20:56:21.337Z,77844.31
2022-09-26T20:58:50.667Z,76563.09
2022-09-26T21:01:21.535Z,75794.56
2022-09-26T21:03:52.943Z,75026.22
2022-09-26T21:06:25.024Z,74002.03
2022-09-26T21:08:53.720Z,73490.06
2022-09-26T21:11:23.377Z,72722.25
2022-09-26T21:13:51.951Z,71682.75
2022-09-26T21:16:23.362Z,71442.94
2022-09-26T21:18:54.093Z,71386.97
2022-09-26T21:21:26.156Z,71187.13
2022-09-26T21:24:19.513Z,71954.59
2022-09-26T21:26:50.156Z,71954.59
2022-09-26T21:29:19.148Z,72466.34
2022-09-26T21:31:51.360Z,72978.16
2022-09-26T21:34:23.779Z,72978.16
2022-09-26T21:36:56.725Z,72466.34
2022-09-26T21:39:26.839Z,72210.47
2022-09-26T21:41:59.034Z,71442.94
2022-09-26T21:44:31.375Z,71698.75
2022-09-26T21:46:59.794Z,72722.25
2022-09-26T21:49:28.312Z,72978.16
2022-09-26T21:52:04.244Z,72722.25
2022-09-26T21:54:36.623Z,72722.25
2022-09-26T21:57:10.035Z,71954.59
2022-09-26T21:59:40.166Z,70803.44
2022-09-26T22:02:08.670Z,71019.25
2022-09-26T22:04:37.046Z,71442.94
2022-09-26T22:07:06.878Z,70148.09
2022-09-26T22:09:35.621Z,69081.44
2022-09-26T22:12:04.582Z,68514.28
2022-09-26T22:14:33.648Z,67953.22
2022-09-26T22:17:02.348Z,67803.47
2022-09-26T22:19:33.621Z,68007.13
2022-09-26T22:22:02.734Z,68370.50
2022-09-26T22:24:33.333Z,67398.22
2022-09-26T22:27:01.950Z,67334.34
2022-09-26T22:29:30.569Z,67434.16
2022-09-26T22:31:59.042Z,67422.16
2022-09-26T22:34:27.441Z,67510.00
2022-09-26T22:36:55.913Z,67657.72
2022-09-26T22:39:24.645Z,67559.91
2022-09-26T22:41:54.479Z,67328.34
2022-09-26T22:44:22.997Z,67551.94
2022-09-26T22:46:51.460Z,67811.47
2022-09-26T22:49:19.880Z,66352.38
2022-09-26T22:51:49.041Z,64808.13
2022-09-26T22:54:17.629Z,64050.22
2022-09-26T22:56:46.031Z,63535.75
2022-09-26T22:59:16.150Z,62608.69
2022-09-26T23:01:44.823Z,62269.84
2022-09-26T23:04:13.369Z,62522.97
2022-09-26T23:06:41.738Z,62708.38
2022-09-26T23:09:10.284Z,62200.06
2022-09-26T23:11:38.684Z,62299.72
2022-09-26T23:14:07.214Z,62503.03
2022-09-26T23:16:37.113Z,62656.53
2022-09-26T23:19:05.808Z,62640.59
2022-09-26T23:21:34.340Z,62722.31
2022-09-26T23:24:04.384Z,62772.16
2022-09-26T23:26:33.403Z,62959.53
2022-09-26T23:29:01.988Z,63406.16
2022-09-26T23:31:30.608Z,63695.28
2022-09-26T23:34:00.406Z,63960.50
2022-09-26T23:36:28.913Z,64143.97
2022-09-26T23:38:59.204Z,64333.41
2022-09-26T23:41:28.340Z,65089.38
2022-09-26T23:43:57.527Z,65512.31
2022-09-26T23:46:26.307Z,65444.50
2022-09-26T23:48:55.058Z,65849.50
2022-09-26T23:51:25.001Z,66256.56
2022-09-26T23:53:58.759Z,66793.41
2022-09-26T23:56:27.347Z,66063.00
2022-09-26T23:58:57.742Z,66029.09
